Time,TemperatureF,DewpointF,PressureIn,WindDirection,WindDirectionDegrees,WindSpeedMPH,WindSpeedGustMPH,Humidity,HourlyPrecipIn,Conditions,Clouds,dailyrainin,SoftwareType,DateUTC
2013-03-18 00:03:00,49.0,47.9,29.94,East,91,0.0,0.0,96,0.00,,,0.00,Wunderground v.1.15,2013-03-18 07:03:00,
2013-03-18 00:10:00,48.7,47.3,29.93,East,91,0.0,0.0,95,0.00,,,0.00,Wunderground v.1.15,2013-03-18 07:10:00,
2013-03-18 00:15:00,48.7,47.6,29.93,East,92,0.0,0.0,96,0.00,,,0.00,Wunderground v.1.15,2013-03-18 07:15:00,
2013-03-18 00:20:00,48.6,47.5,29.93,East,92,0.0,0.0,96,0.00,,,0.00,Wunderground v.1.15,2013-03-18 07:20:00,
2013-03-18 00:25:00,48.8,48.0,29.94,ENE,59,1.0,3.0,97,0.00,,,0.00,Wunderground v.1.15,2013-03-18 07:25:00,
2013-03-18 00:32:00,49.0,48.2,29.94,NE,36,1.0,3.0,97,0.00,,,0.00,Wunderground v.1.15,2013-03-18 07:32:00,
2013-03-18 00:37:00,49.1,48.3,29.94,NE,36,0.0,1.0,97,0.00,,,0.00,Wunderground v.1.15,2013-03-18 07:37:00,
2013-03-18 00:42:00,49.3,48.5,29.94,NE,36,0.0,1.0,97,0.00,,,0.00,Wunderground v.1.15,2013-03-18 07:42:00,
2013-03-18 00:48:00,49.5,48.7,29.94,NE,35,0.0,0.0,97,0.00,,,0.00,Wunderground v.1.15,2013-03-18 07:48:00,
2013-03-18 00:55:00,49.6,48.8,29.94,NE,36,0.0,0.0,97,0.00,,,0.00,Wunderground v.1.15,2013-03-18 07:55:00,
2013-03-18 01:00:00,49.7,48.9,29.94,NE,36,0.0,0.0,97,0.00,,,0.00,Wunderground v.1.15,2013-03-18 08:00:00,
2013-03-18 01:06:00,49.8,49.0,29.94,NE,35,0.0,0.0,97,0.00,,,0.00,Wunderground v.1.15,2013-03-18 08:06:00,
2013-03-18 01:11:00,49.8,48.7,29.94,NE,35,0.0,0.0,96,0.00,,,0.00,Wunderground v.1.15,2013-03-18 08:11:00,
2013-03-18 01:17:00,49.7,48.6,29.95,ENE,69,0.0,0.0,96,0.00,,,0.00,Wunderground v.1.15,2013-03-18 08:17:00,
2013-03-18 01:22:00,49.7,48.6,29.95,ENE,69,0.0,1.0,96,0.00,,,0.00,Wunderground v.1.15,2013-03-18 08:22:00,
2013-03-18 01:28:00,49.8,48.7,29.95,ENE,69,0.0,0.0,96,0.00,,,0.00,Wunderground v.1.15,2013-03-18 08:28:00,
2013-03-18 01:35:00,49.7,48.6,29.95,NE,47,1.0,1.0,96,0.00,,,0.00,Wunderground v.1.15,2013-03-18 08:35:00,
2013-03-18 01:40:00,49.6,48.2,29.95,NE,47,1.0,4.0,95,0.00,,,0.00,Wunderground v.1.15,2013-03-18 08:40:00,
2013-03-18 01:46:00,49.6,48.2,29.95,NE,49,1.0,1.0,95,0.00,,,0.00,Wunderground v.1.15,2013-03-18 08:46:00,
2013-03-18 01:52:00,49.6,48.2,29.95,NE,55,0.0,2.0,95,0.00,,,0.00,Wunderground v.1.15,2013-03-18 08:52:00,
2013-03-18 01:58:00,49.6,48.2,29.95,NE,55,1.0,1.0,95,0.00,,,0.00,Wunderground v.1.15,2013-03-18 08:58:00,
2013-03-18 02:05:00,49.7,48.6,29.95,East,91,0.0,0.0,96,0.00,,,0.00,Wunderground v.1.15,2013-03-18 09:05:00,
2013-03-18 02:10:00,49.7,48.6,29.95,ESE,115,0.0,0.0,96,0.00,,,0.00,Wunderground v.1.15,2013-03-18 09:10:00,
2013-03-18 02:15:00,49.7,48.6,29.95,ESE,115,0.0,0.0,96,0.00,,,0.00,Wunderground v.1.15,2013-03-18 09:15:00,
2013-03-18 02:21:00,49.7,48.6,29.95,ESE,115,0.0,0.0,96,0.00,,,0.00,Wunderground v.1.15,2013-03-18 09:21:00,
2013-03-18 02:27:00,49.7,48.6,29.95,ENE,64,0.0,2.0,96,0.00,,,0.00,Wunderground v.1.15,2013-03-18 09:27:00,
2013-03-18 02:33:00,49.7,48.6,29.95,ENE,63,0.0,2.0,96,0.00,,,0.00,Wunderground v.1.15,2013-03-18 09:33:00,
2013-03-18 02:38:00,49.6,48.5,29.95,ENE,64,0.0,0.0,96,0.00,,,0.00,Wunderground v.1.15,2013-03-18 09:38:00,
2013-03-18 02:44:00,49.5,48.4,29.95,ENE,64,0.0,0.0,96,0.00,,,0.00,Wunderground v.1.15,2013-03-18 09:44:00,
2013-03-18 02:50:00,49.5,48.4,29.95,ENE,64,0.0,0.0,96,0.00,,,0.00,Wunderground v.1.15,2013-03-18 09:50:00,
2013-03-18 02:55:00,49.4,48.3,29.95,East,79,0.0,0.0,96,0.00,,,0.00,Wunderground v.1.15,2013-03-18 09:55:00,
2013-03-18 03:01:00,49.4,48.3,29.95,ENE,60,0.0,0.0,96,0.00,,,0.00,Wunderground v.1.15,2013-03-18 10:01:00,
2013-03-18 03:07:00,49.3,48.2,29.95,ENE,59,0.0,0.0,96,0.00,,,0.00,Wunderground v.1.15,2013-03-18 10:07:00,
2013-03-18 03:12:00,49.3,48.2,29.95,SSE,155,0.0,1.0,96,0.00,,,0.00,Wunderground v.1.15,2013-03-18 10:12:00,
2013-03-18 03:18:00,49.3,48.2,29.95,SE,143,0.0,0.0,96,0.00,,,0.00,Wunderground v.1.15,2013-03-18 10:18:00,
2013-03-18 03:23:00,49.2,47.8,29.94,SSE,162,0.0,1.0,95,0.00,,,0.00,Wunderground v.1.15,2013-03-18 10:23:00,
2013-03-18 03:28:00,49.1,47.7,29.94,West,272,0.0,2.0,95,0.00,,,0.00,Wunderground v.1.15,2013-03-18 10:28:00,
2013-03-18 03:34:00,48.9,47.5,29.94,West,274,0.0,0.0,95,0.00,,,0.00,Wunderground v.1.15,2013-03-18 10:34:00,
2013-03-18 03:40:00,48.8,47.4,29.94,West,274,0.0,0.0,95,0.00,,,0.00,Wunderground v.1.15,2013-03-18 10:40:00,
2013-03-18 03:45:00,48.7,47.6,29.94,West,264,0.0,0.0,96,0.00,,,0.00,Wunderground v.1.15,2013-03-18 10:45:00,
2013-03-18 03:50:00,48.6,47.5,29.94,West,264,0.0,0.0,96,0.00,,,0.00,Wunderground v.1.15,2013-03-18 10:50:00,
2013-03-18 03:56:00,48.4,47.3,29.94,West,266,0.0,0.0,96,0.00,,,0.00,Wunderground v.1.15,2013-03-18 10:56:00,
2013-03-18 04:01:00,48.2,47.1,29.94,West,266,0.0,0.0,96,0.00,,,0.00,Wunderground v.1.15,2013-03-18 11:01:00,
2013-03-18 04:07:00,48.2,47.1,29.94,West,266,0.0,0.0,96,0.00,,,0.00,Wunderground v.1.15,2013-03-18 11:07:00,
2013-03-18 04:12:00,48.2,47.1,29.94,NE,36,0.0,2.0,96,0.00,,,0.00,Wunderground v.1.15,2013-03-18 11:12:00,
2013-03-18 04:18:00,48.2,47.1,29.94,NE,35,0.0,1.0,96,0.00,,,0.00,Wunderground v.1.15,2013-03-18 11:18:00,
2013-03-18 04:23:00,48.2,47.1,29.94,NE,35,0.0,1.0,96,0.00,,,0.00,Wunderground v.1.15,2013-03-18 11:23:00,
2013-03-18 04:30:00,48.2,47.1,29.94,NE,35,0.0,0.0,96,0.00,,,0.00,Wunderground v.1.15,2013-03-18 11:30:00,
2013-03-18 04:35:00,48.2,47.1,29.93,NE,36,0.0,1.0,96,0.00,,,0.00,Wunderground v.1.15,2013-03-18 11:35:00,
2013-03-18 04:40:00,48.2,47.1,29.93,ESE,121,0.0,2.0,96,0.00,,,0.00,Wunderground v.1.15,2013-03-18 11:40:00,
2013-03-18 04:47:00,48.2,47.4,29.93,East,101,0.0,0.0,97,0.00,,,0.00,Wunderground v.1.15,2013-03-18 11:47:00,
2013-03-18 04:52:00,48.2,47.1,29.94,North,356,0.0,0.0,96,0.00,,,0.00,Wunderground v.1.15,2013-03-18 11:52:00,
2013-03-18 04:58:00,48.2,47.1,29.94,NNE,22,1.0,2.0,96,0.00,,,0.00,Wunderground v.1.15,2013-03-18 11:58:00,
2013-03-18 05:03:00,48.1,47.0,29.94,NNW,342,1.0,2.0,96,0.00,,,0.00,Wunderground v.1.15,2013-03-18 12:03:00,
2013-03-18 05:10:00,48.1,47.3,29.94,North,4,1.0,2.0,97,0.00,,,0.00,Wunderground v.1.15,2013-03-18 12:10:00,
2013-03-18 05:15:00,48.1,47.3,29.95,North,6,1.0,1.0,97,0.00,,,0.00,Wunderground v.1.15,2013-03-18 12:15:00,
2013-03-18 05:20:00,48.1,47.3,29.95,NNE,16,0.0,1.0,97,0.00,,,0.00,Wunderground v.1.15,2013-03-18 12:20:00,
2013-03-18 05:26:00,48.1,47.3,29.95,NNE,20,1.0,1.0,97,0.00,,,0.00,Wunderground v.1.15,2013-03-18 12:26:00,
2013-03-18 05:32:00,48.1,47.3,29.95,NNE,15,1.0,2.0,97,0.00,,,0.00,Wunderground v.1.15,2013-03-18 12:32:00,
2013-03-18 05:37:00,48.1,47.3,29.96,NNE,15,1.0,2.0,97,0.00,,,0.00,Wunderground v.1.15,2013-03-18 12:37:00,
2013-03-18 05:42:00,48.0,47.2,29.96,North,11,2.0,3.0,97,0.00,,,0.00,Wunderground v.1.15,2013-03-18 12:42:00,
2013-03-18 05:48:00,48.0,47.2,29.96,NNW,345,1.0,2.0,97,0.00,,,0.00,Wunderground v.1.15,2013-03-18 12:48:00,
2013-03-18 05:55:00,48.1,47.3,29.96,NNE,18,0.0,1.0,97,0.00,,,0.00,Wunderground v.1.15,2013-03-18 12:55:00,
2013-03-18 06:00:00,48.0,46.9,29.97,NNE,33,1.0,3.0,96,0.00,,,0.00,Wunderground v.1.15,2013-03-18 13:00:00,
2013-03-18 06:05:00,47.6,46.5,29.97,NNE,27,2.0,4.0,96,0.00,,,0.00,Wunderground v.1.15,2013-03-18 13:05:00,
2013-03-18 06:10:00,47.6,46.8,29.97,North,8,2.0,4.0,97,0.00,,,0.00,Wunderground v.1.15,2013-03-18 13:10:00,
2013-03-18 06:16:00,47.9,47.1,29.98,NE,43,1.0,1.0,97,0.00,,,0.00,Wunderground v.1.15,2013-03-18 13:16:00,
2013-03-18 06:22:00,47.9,47.1,29.98,NE,43,1.0,1.0,97,0.00,,,0.00,Wunderground v.1.15,2013-03-18 13:22:00,
2013-03-18 06:27:00,48.1,47.3,29.98,NNE,16,0.0,3.0,97,0.00,,,0.00,Wunderground v.1.15,2013-03-18 13:27:00,
2013-03-18 06:33:00,47.9,46.8,29.98,North,4,1.0,4.0,96,0.00,,,0.00,Wunderground v.1.15,2013-03-18 13:33:00,
2013-03-18 06:40:00,47.8,46.7,29.98,NNE,13,2.0,2.0,96,0.00,,,0.00,Wunderground v.1.15,2013-03-18 13:40:00,
2013-03-18 06:45:00,47.8,46.7,29.98,NNW,335,1.0,2.0,96,0.00,,,0.00,Wunderground v.1.15,2013-03-18 13:45:00,
2013-03-18 06:51:00,47.8,46.7,29.99,NNE,15,1.0,3.0,96,0.00,,,0.00,Wunderground v.1.15,2013-03-18 13:51:00,
2013-03-18 06:57:00,47.8,46.7,29.99,NNE,19,1.0,1.0,96,0.00,,,0.00,Wunderground v.1.15,2013-03-18 13:57:00,
2013-03-18 07:02:00,48.0,46.9,29.99,NNE,13,0.0,1.0,96,0.00,,,0.00,Wunderground v.1.15,2013-03-18 14:02:00,
2013-03-18 07:08:00,47.8,46.7,29.99,ENE,67,1.0,4.0,96,0.00,,,0.00,Wunderground v.1.15,2013-03-18 14:08:00,
2013-03-18 07:15:00,47.8,46.7,29.99,NE,51,2.0,2.0,96,0.00,,,0.00,Wunderground v.1.15,2013-03-18 14:15:00,
2013-03-18 07:20:00,47.9,46.8,29.99,NE,51,1.0,2.0,96,0.00,,,0.00,Wunderground v.1.15,2013-03-18 14:20:00,
2013-03-18 07:25:00,48.0,46.9,30.00,NE,56,0.0,1.0,96,0.00,,,0.00,Wunderground v.1.15,2013-03-18 14:25:00,
2013-03-18 07:30:00,48.1,47.0,30.00,NE,37,1.0,2.0,96,0.00,,,0.00,Wunderground v.1.15,2013-03-18 14:30:00,
2013-03-18 07:37:00,48.2,46.8,30.00,NE,43,1.0,4.0,95,0.00,,,0.00,Wunderground v.1.15,2013-03-18 14:37:00,
2013-03-18 07:43:00,48.1,46.7,29.99,NE,54,2.0,5.0,95,0.00,,,0.00,Wunderground v.1.15,2013-03-18 14:43:00,
2013-03-18 07:50:00,48.1,46.7,30.00,North,6,2.0,3.0,95,0.00,,,0.00,Wunderground v.1.15,2013-03-18 14:50:00,
2013-03-18 07:55:00,48.3,46.9,30.00,NE,39,1.0,2.0,95,0.00,,,0.00,Wunderground v.1.15,2013-03-18 14:55:00,
2013-03-18 08:00:00,48.4,47.0,30.00,NNE,30,1.0,2.0,95,0.00,,,0.00,Wunderground v.1.15,2013-03-18 15:00:00,
2013-03-18 08:05:00,48.7,47.3,30.01,NNE,29,0.0,0.0,95,0.00,,,0.00,Wunderground v.1.15,2013-03-18 15:05:00,
2013-03-18 08:11:00,49.2,47.8,30.01,NNE,30,0.0,0.0,95,0.00,,,0.00,Wunderground v.1.15,2013-03-18 15:11:00,
2013-03-18 08:17:00,49.3,47.6,30.01,ENE,72,0.0,2.0,94,0.00,,,0.00,Wunderground v.1.15,2013-03-18 15:17:00,
2013-03-18 08:22:00,49.2,47.3,30.01,East,79,1.0,2.0,93,0.00,,,0.00,Wunderground v.1.15,2013-03-18 15:22:00,
2013-03-18 08:27:00,49.2,47.3,30.02,ENE,63,1.0,2.0,93,0.00,,,0.00,Wunderground v.1.15,2013-03-18 15:27:00,
2013-03-18 08:34:00,49.2,47.3,30.02,NE,45,1.0,2.0,93,0.00,,,0.00,Wunderground v.1.15,2013-03-18 15:34:00,
2013-03-18 08:40:00,49.6,47.7,30.02,West,276,1.0,2.0,93,0.00,,,0.00,Wunderground v.1.15,2013-03-18 15:40:00,
2013-03-18 08:45:00,50.5,48.6,30.01,SW,218,0.0,0.0,93,0.00,,,0.00,Wunderground v.1.15,2013-03-18 15:45:00,
2013-03-18 08:50:00,51.8,49.0,30.01,SSE,163,0.0,2.0,90,0.00,,,0.00,Wunderground v.1.15,2013-03-18 15:50:00,
2013-03-18 08:55:00,52.6,49.1,30.01,SE,131,0.0,0.0,88,0.00,,,0.00,Wunderground v.1.15,2013-03-18 15:55:00,
2013-03-18 09:01:00,53.6,49.5,30.01,ENE,63,0.0,1.0,86,0.00,,,0.00,Wunderground v.1.15,2013-03-18 16:01:00,
2013-03-18 09:06:00,54.1,49.7,30.01,East,87,1.0,2.0,85,0.00,,,0.00,Wunderground v.1.15,2013-03-18 16:06:00,
2013-03-18 09:12:00,54.3,49.2,30.02,ESE,113,1.0,2.0,83,0.00,,,0.00,Wunderground v.1.15,2013-03-18 16:12:00,
2013-03-18 09:17:00,54.7,49.3,30.02,SSE,161,1.0,3.0,82,0.00,,,0.00,Wunderground v.1.15,2013-03-18 16:17:00,
2013-03-18 09:23:00,54.8,49.7,30.03,ESE,117,1.0,3.0,83,0.00,,,0.00,Wunderground v.1.15,2013-03-18 16:23:00,
2013-03-18 09:29:00,54.9,49.8,30.03,ESE,105,1.0,2.0,83,0.00,,,0.00,Wunderground v.1.15,2013-03-18 16:29:00,
2013-03-18 09:35:00,55.3,49.9,30.03,ESE,105,1.0,1.0,82,0.00,,,0.00,Wunderground v.1.15,2013-03-18 16:35:00,
2013-03-18 09:40:00,56.1,50.0,30.02,SE,145,0.0,1.0,80,0.00,,,0.00,Wunderground v.1.15,2013-03-18 16:40:00,
2013-03-18 09:46:00,56.1,50.0,30.02,SE,129,1.0,3.0,80,0.00,,,0.00,Wunderground v.1.15,2013-03-18 16:46:00,
2013-03-18 09:51:00,56.1,50.7,30.02,NNE,25,1.0,3.0,82,0.00,,,0.00,Wunderground v.1.15,2013-03-18 16:51:00,
2013-03-18 09:57:00,57.1,50.0,30.03,SSE,159,1.0,5.0,77,0.00,,,0.00,Wunderground v.1.15,2013-03-18 16:57:00,
2013-03-18 10:03:00,56.7,49.6,30.04,SSE,167,2.0,5.0,77,0.00,,,0.00,Wunderground v.1.15,2013-03-18 17:03:00,
2013-03-18 10:10:00,56.2,49.8,30.04,WSW,257,2.0,3.0,79,0.00,,,0.00,Wunderground v.1.15,2013-03-18 17:10:00,
2013-03-18 10:16:00,56.1,49.7,30.04,West,267,2.0,5.0,79,0.00,,,0.00,Wunderground v.1.15,2013-03-18 17:16:00,
2013-03-18 10:21:00,56.9,50.8,30.04,South,186,2.0,6.0,80,0.00,,,0.00,Wunderground v.1.15,2013-03-18 17:21:00,
2013-03-18 10:27:00,57.7,50.5,30.04,SSW,194,2.0,3.0,77,0.00,,,0.00,Wunderground v.1.15,2013-03-18 17:27:00,
2013-03-18 10:33:00,57.2,50.1,30.04,SSW,212,2.0,4.0,77,0.00,,,0.00,Wunderground v.1.15,2013-03-18 17:33:00,
2013-03-18 10:38:00,58.0,50.8,30.04,SSE,165,2.0,4.0,77,0.00,,,0.00,Wunderground v.1.15,2013-03-18 17:38:00,
2013-03-18 10:44:00,58.4,50.5,30.04,South,181,2.0,2.0,75,0.00,,,0.00,Wunderground v.1.15,2013-03-18 17:44:00,
2013-03-18 10:50:00,59.1,50.8,30.03,SSW,209,1.0,3.0,74,0.00,,,0.00,Wunderground v.1.15,2013-03-18 17:50:00,
2013-03-18 10:55:00,59.7,51.8,30.03,ESE,120,2.0,4.0,75,0.00,,,0.00,Wunderground v.1.15,2013-03-18 17:55:00,
2013-03-18 11:01:00,60.1,51.4,30.03,East,82,1.0,4.0,73,0.00,,,0.00,Wunderground v.1.15,2013-03-18 18:01:00,
2013-03-18 11:07:00,60.4,50.6,30.04,SSW,193,2.0,3.0,70,0.00,,,0.00,Wunderground v.1.15,2013-03-18 18:07:00,
2013-03-18 11:12:00,60.1,50.3,30.04,East,87,3.0,4.0,70,0.00,,,0.00,Wunderground v.1.15,2013-03-18 18:12:00,
2013-03-18 11:18:00,60.5,50.7,30.03,SSW,198,2.0,3.0,70,0.00,,,0.00,Wunderground v.1.15,2013-03-18 18:18:00,
2013-03-18 11:25:00,60.5,51.0,30.03,SSW,195,3.0,3.0,71,0.00,,,0.00,Wunderground v.1.15,2013-03-18 18:25:00,
2013-03-18 11:30:00,61.1,50.8,30.03,East,89,2.0,6.0,69,0.00,,,0.00,Wunderground v.1.15,2013-03-18 18:30:00,
2013-03-18 11:35:00,61.4,51.5,30.03,SSE,159,2.0,5.0,70,0.00,,,0.00,Wunderground v.1.15,2013-03-18 18:35:00,
2013-03-18 11:40:00,61.6,50.9,30.03,ENE,67,2.0,5.0,68,0.00,,,0.00,Wunderground v.1.15,2013-03-18 18:40:00,
2013-03-18 11:46:00,62.5,51.8,30.03,SE,143,1.0,2.0,68,0.00,,,0.00,Wunderground v.1.15,2013-03-18 18:46:00,
2013-03-18 11:52:00,63.3,51.7,30.02,SE,145,2.0,3.0,66,0.00,,,0.00,Wunderground v.1.15,2013-03-18 18:52:00,
2013-03-18 11:57:00,63.1,50.7,30.02,SE,136,2.0,3.0,64,0.00,,,0.00,Wunderground v.1.15,2013-03-18 18:57:00,
2013-03-18 12:03:00,62.9,50.5,30.02,NE,47,2.0,3.0,64,0.00,,,0.00,Wunderground v.1.15,2013-03-18 19:03:00,
2013-03-18 12:08:00,63.1,51.1,30.03,SSE,162,2.0,5.0,65,0.00,,,0.00,Wunderground v.1.15,2013-03-18 19:08:00,
2013-03-18 12:14:00,63.3,50.9,30.02,SSW,212,3.0,3.0,64,0.00,,,0.00,Wunderground v.1.15,2013-03-18 19:14:00,
2013-03-18 12:20:00,63.6,51.2,30.02,SE,142,3.0,4.0,64,0.00,,,0.00,Wunderground v.1.15,2013-03-18 19:20:00,
2013-03-18 12:25:00,64.5,51.6,30.02,SSE,165,2.0,3.0,63,0.00,,,0.00,Wunderground v.1.15,2013-03-18 19:25:00,
2013-03-18 12:31:00,64.9,51.1,30.02,South,172,2.0,3.0,61,0.00,,,0.00,Wunderground v.1.15,2013-03-18 19:31:00,
2013-03-18 12:36:00,65.0,51.7,30.02,ESE,122,2.0,4.0,62,0.00,,,0.00,Wunderground v.1.15,2013-03-18 19:36:00,
2013-03-18 12:41:00,65.0,51.2,30.02,SSW,212,3.0,6.0,61,0.00,,,0.00,Wunderground v.1.15,2013-03-18 19:41:00,
2013-03-18 12:46:00,65.4,52.0,30.02,SSE,160,3.0,4.0,62,0.00,,,0.00,Wunderground v.1.15,2013-03-18 19:46:00,
2013-03-18 12:52:00,65.4,50.7,30.02,SSW,200,2.0,5.0,59,0.00,,,0.00,Wunderground v.1.15,2013-03-18 19:52:00,
2013-03-18 12:58:00,65.6,51.8,30.01,SE,142,3.0,4.0,61,0.00,,,0.00,Wunderground v.1.15,2013-03-18 19:58:00,
2013-03-18 13:03:00,65.9,52.5,30.02,SW,235,3.0,4.0,62,0.00,,,0.00,Wunderground v.1.15,2013-03-18 20:03:00,
2013-03-18 13:10:00,66.0,51.3,30.02,SW,233,2.0,6.0,59,0.00,,,0.00,Wunderground v.1.15,2013-03-18 20:10:00,
2013-03-18 13:15:00,66.1,52.3,30.02,SW,232,3.0,3.0,61,0.00,,,0.00,Wunderground v.1.15,2013-03-18 20:15:00,
2013-03-18 13:20:00,66.6,50.9,30.01,SE,129,3.0,5.0,57,0.00,,,0.00,Wunderground v.1.15,2013-03-18 20:20:00,
2013-03-18 13:26:00,67.8,51.5,30.01,SE,126,2.0,2.0,56,0.00,,,0.00,Wunderground v.1.15,2013-03-18 20:26:00,
2013-03-18 13:31:00,68.0,51.7,30.01,SSW,204,2.0,4.0,56,0.00,,,0.00,Wunderground v.1.15,2013-03-18 20:31:00,
2013-03-18 13:36:00,67.7,51.9,30.01,South,176,2.0,5.0,57,0.00,,,0.00,Wunderground v.1.15,2013-03-18 20:36:00,
2013-03-18 13:41:00,67.7,51.9,30.01,SE,136,3.0,6.0,57,0.00,,,0.00,Wunderground v.1.15,2013-03-18 20:41:00,
2013-03-18 13:47:00,67.7,51.4,30.00,WSW,248,3.0,3.0,56,0.00,,,0.00,Wunderground v.1.15,2013-03-18 20:47:00,
2013-03-18 13:53:00,67.3,51.1,30.00,South,188,2.0,7.0,56,0.00,,,0.00,Wunderground v.1.15,2013-03-18 20:53:00,
2013-03-18 13:58:00,67.4,51.2,30.00,South,190,2.0,2.0,56,0.00,,,0.00,Wunderground v.1.15,2013-03-18 20:58:00,
2013-03-18 14:04:00,67.6,51.3,30.00,SSE,165,3.0,3.0,56,0.00,,,0.00,Wunderground v.1.15,2013-03-18 21:04:00,
2013-03-18 14:09:00,67.8,51.5,30.00,South,176,4.0,5.0,56,0.00,,,0.00,Wunderground v.1.15,2013-03-18 21:09:00,
2013-03-18 14:15:00,68.1,51.3,30.00,SE,139,2.0,2.0,55,0.00,,,0.00,Wunderground v.1.15,2013-03-18 21:15:00,
2013-03-18 14:20:00,68.1,51.3,30.00,SW,217,2.0,3.0,55,0.00,,,0.00,Wunderground v.1.15,2013-03-18 21:20:00,
2013-03-18 14:25:00,67.1,52.3,30.00,SE,136,3.0,3.0,59,0.00,,,0.00,Wunderground v.1.15,2013-03-18 21:25:00,
2013-03-18 14:30:00,66.9,52.6,30.00,SE,133,3.0,5.0,60,0.00,,,0.00,Wunderground v.1.15,2013-03-18 21:30:00,
2013-03-18 14:35:00,66.3,52.9,30.00,SSW,212,3.0,4.0,62,0.00,,,0.00,Wunderground v.1.15,2013-03-18 21:35:00,
2013-03-18 14:41:00,66.1,53.1,30.00,SSE,167,3.0,5.0,63,0.00,,,0.00,Wunderground v.1.15,2013-03-18 21:41:00,
2013-03-18 14:46:00,66.1,53.1,30.00,ESE,108,3.0,5.0,63,0.00,,,0.00,Wunderground v.1.15,2013-03-18 21:46:00,
2013-03-18 14:52:00,66.0,53.5,30.00,SE,142,3.0,5.0,64,0.00,,,0.00,Wunderground v.1.15,2013-03-18 21:52:00,
2013-03-18 14:57:00,65.8,53.3,29.99,SSE,155,3.0,3.0,64,0.00,,,0.00,Wunderground v.1.15,2013-03-18 21:57:00,
2013-03-18 15:03:00,65.2,52.7,29.99,SSE,165,3.0,6.0,64,0.00,,,0.00,Wunderground v.1.15,2013-03-18 22:03:00,
2013-03-18 15:09:00,64.9,53.3,29.99,SE,133,3.0,4.0,66,0.00,,,0.00,Wunderground v.1.15,2013-03-18 22:09:00,
2013-03-18 15:15:00,65.3,53.2,29.99,South,188,2.0,2.0,65,0.00,,,0.00,Wunderground v.1.15,2013-03-18 22:15:00,
2013-03-18 15:20:00,65.5,53.4,29.99,East,99,2.0,3.0,65,0.00,,,0.00,Wunderground v.1.15,2013-03-18 22:20:00,
2013-03-18 15:25:00,64.5,53.3,29.99,SE,136,2.0,3.0,67,0.00,,,0.00,Wunderground v.1.15,2013-03-18 22:25:00,
2013-03-18 15:31:00,64.2,53.0,29.99,East,94,2.0,3.0,67,0.00,,,0.00,Wunderground v.1.15,2013-03-18 22:31:00,
2013-03-18 15:36:00,64.1,52.9,29.99,SE,145,2.0,2.0,67,0.00,,,0.00,Wunderground v.1.15,2013-03-18 22:36:00,
2013-03-18 15:42:00,64.3,53.5,29.98,ENE,68,1.0,2.0,68,0.00,,,0.00,Wunderground v.1.15,2013-03-18 22:42:00,
2013-03-18 15:48:00,63.9,52.7,29.98,SSE,159,1.0,3.0,67,0.00,,,0.00,Wunderground v.1.15,2013-03-18 22:48:00,
2013-03-18 15:53:00,64.1,52.9,29.98,SE,146,1.0,3.0,67,0.00,,,0.00,Wunderground v.1.15,2013-03-18 22:53:00,
2013-03-18 15:58:00,64.0,52.4,29.98,ESE,113,1.0,3.0,66,0.00,,,0.00,Wunderground v.1.15,2013-03-18 22:58:00,
2013-03-18 16:04:00,63.5,52.7,29.98,East,100,2.0,2.0,68,0.00,,,0.00,Wunderground v.1.15,2013-03-18 23:04:00,
2013-03-18 16:10:00,63.2,52.9,29.98,SE,139,2.0,2.0,69,0.00,,,0.00,Wunderground v.1.15,2013-03-18 23:10:00,
2013-03-18 16:15:00,63.2,52.5,29.98,SSE,152,1.0,1.0,68,0.00,,,0.00,Wunderground v.1.15,2013-03-18 23:15:00,
2013-03-18 16:21:00,63.2,52.9,29.99,South,191,1.0,1.0,69,0.00,,,0.00,Wunderground v.1.15,2013-03-18 23:21:00,
2013-03-18 16:26:00,63.5,53.1,29.99,SE,136,0.0,0.0,69,0.00,,,0.00,Wunderground v.1.15,2013-03-18 23:26:00,
2013-03-18 16:32:00,63.6,52.8,29.99,SW,218,1.0,2.0,68,0.00,,,0.00,Wunderground v.1.15,2013-03-18 23:32:00,
2013-03-18 16:38:00,63.5,52.7,29.98,WSW,246,1.0,3.0,68,0.00,,,0.00,Wunderground v.1.15,2013-03-18 23:38:00,
2013-03-18 16:44:00,63.4,53.0,29.98,ESE,108,1.0,1.0,69,0.00,,,0.00,Wunderground v.1.15,2013-03-18 23:44:00,
2013-03-18 16:50:00,63.6,53.2,29.98,ESE,102,1.0,1.0,69,0.00,,,0.00,Wunderground v.1.15,2013-03-18 23:50:00,
2013-03-18 16:55:00,63.3,53.0,29.99,East,100,1.0,1.0,69,0.00,,,0.00,Wunderground v.1.15,2013-03-18 23:55:00,
2013-03-18 17:01:00,63.2,52.9,29.99,SE,132,1.0,2.0,69,0.00,,,0.00,Wunderground v.1.15,2013-03-19 00:01:00,
2013-03-18 17:07:00,63.4,53.4,29.98,SSE,153,1.0,1.0,70,0.00,,,0.00,Wunderground v.1.15,2013-03-19 00:07:00,
2013-03-18 17:13:00,63.1,52.8,29.98,ESE,106,1.0,2.0,69,0.00,,,0.00,Wunderground v.1.15,2013-03-19 00:13:00,
2013-03-18 17:20:00,62.6,52.7,29.98,East,95,1.0,1.0,70,0.00,,,0.00,Wunderground v.1.15,2013-03-19 00:20:00,
2013-03-18 17:25:00,62.4,52.9,29.98,ESE,105,1.0,1.0,71,0.00,,,0.00,Wunderground v.1.15,2013-03-19 00:25:00,
2013-03-18 17:30:00,62.4,52.9,29.98,ESE,105,0.0,2.0,71,0.00,,,0.00,Wunderground v.1.15,2013-03-19 00:30:00,
2013-03-18 17:35:00,62.2,53.1,29.97,ESE,108,0.0,1.0,72,0.00,,,0.00,Wunderground v.1.15,2013-03-19 00:35:00,
2013-03-18 17:40:00,61.9,52.4,29.97,East,100,1.0,3.0,71,0.00,,,0.00,Wunderground v.1.15,2013-03-19 00:40:00,
2013-03-18 17:46:00,61.3,52.2,29.98,East,94,2.0,3.0,72,0.00,,,0.00,Wunderground v.1.15,2013-03-19 00:46:00,
2013-03-18 17:51:00,61.2,52.5,29.98,SE,129,2.0,4.0,73,0.00,,,0.00,Wunderground v.1.15,2013-03-19 00:51:00,
2013-03-18 17:56:00,60.9,52.6,29.97,ESE,122,2.0,3.0,74,0.00,,,0.00,Wunderground v.1.15,2013-03-19 00:56:00,
2013-03-18 18:02:00,60.5,52.5,29.97,East,93,2.0,3.0,75,0.00,,,0.00,Wunderground v.1.15,2013-03-19 01:02:00,
2013-03-18 18:07:00,60.3,52.3,29.98,ESE,103,1.0,2.0,75,0.00,,,0.00,Wunderground v.1.15,2013-03-19 01:07:00,
2013-03-18 18:13:00,60.0,52.1,29.98,SE,139,1.0,2.0,75,0.00,,,0.00,Wunderground v.1.15,2013-03-19 01:13:00,
2013-03-18 18:20:00,59.8,52.2,29.98,SSE,165,1.0,1.0,76,0.00,,,0.00,Wunderground v.1.15,2013-03-19 01:20:00,
2013-03-18 18:25:00,59.6,52.0,29.99,SSE,158,1.0,1.0,76,0.00,,,0.00,Wunderground v.1.15,2013-03-19 01:25:00,
2013-03-18 18:31:00,59.4,52.2,29.99,SE,142,0.0,1.0,77,0.00,,,0.00,Wunderground v.1.15,2013-03-19 01:31:00,
2013-03-18 18:37:00,59.2,52.0,30.00,SSW,208,0.0,2.0,77,0.00,,,0.00,Wunderground v.1.15,2013-03-19 01:37:00,
2013-03-18 18:43:00,59.0,52.1,29.99,South,186,1.0,2.0,78,0.00,,,0.00,Wunderground v.1.15,2013-03-19 01:43:00,
2013-03-18 18:49:00,58.7,51.9,30.00,South,172,2.0,6.0,78,0.00,,,0.00,Wunderground v.1.15,2013-03-19 01:49:00,
2013-03-18 18:55:00,58.4,51.2,30.00,WSW,253,2.0,3.0,77,0.00,,,0.00,Wunderground v.1.15,2013-03-19 01:55:00,
2013-03-18 19:01:00,58.0,51.2,30.00,WSW,248,3.0,5.0,78,0.00,,,0.00,Wunderground v.1.15,2013-03-19 02:01:00,
2013-03-18 19:07:00,57.4,50.6,30.00,SW,226,3.0,5.0,78,0.00,,,0.00,Wunderground v.1.15,2013-03-19 02:07:00,
2013-03-18 19:12:00,56.6,50.2,30.00,West,276,4.0,5.0,79,0.00,,,0.00,Wunderground v.1.15,2013-03-19 02:12:00,
2013-03-18 19:18:00,56.0,50.3,30.00,WSW,252,4.0,5.0,81,0.00,,,0.00,Wunderground v.1.15,2013-03-19 02:18:00,
2013-03-18 19:23:00,55.5,50.1,30.00,West,277,4.0,7.0,82,0.00,,,0.00,Wunderground v.1.15,2013-03-19 02:23:00,
2013-03-18 19:28:00,55.0,49.9,30.00,West,267,4.0,4.0,83,0.00,,,0.00,Wunderground v.1.15,2013-03-19 02:28:00,
2013-03-18 19:35:00,54.7,49.6,30.00,WNW,290,3.0,3.0,83,0.00,,,0.00,Wunderground v.1.15,2013-03-19 02:35:00,
2013-03-18 19:40:00,54.5,49.8,30.01,WNW,298,2.0,3.0,84,0.00,,,0.00,Wunderground v.1.15,2013-03-19 02:40:00,
2013-03-18 19:45:00,54.2,49.5,30.01,West,276,2.0,4.0,84,0.00,,,0.00,Wunderground v.1.15,2013-03-19 02:45:00,
2013-03-18 19:51:00,53.8,49.4,30.01,West,272,2.0,4.0,85,0.00,,,0.00,Wunderground v.1.15,2013-03-19 02:51:00,
2013-03-18 19:57:00,53.6,49.5,30.01,West,272,1.0,1.0,86,0.00,,,0.00,Wunderground v.1.15,2013-03-19 02:57:00,
2013-03-18 20:03:00,53.6,49.5,30.02,WSW,245,0.0,2.0,86,0.00,,,0.00,Wunderground v.1.15,2013-03-19 03:03:00,
2013-03-18 20:08:00,53.6,49.5,30.02,WSW,242,0.0,2.0,86,0.00,,,0.00,Wunderground v.1.15,2013-03-19 03:08:00,
2013-03-18 20:13:00,53.6,49.5,30.02,WSW,242,0.0,2.0,86,0.00,,,0.00,Wunderground v.1.15,2013-03-19 03:13:00,
2013-03-18 20:20:00,53.4,49.3,30.02,WSW,243,0.0,0.0,86,0.00,,,0.00,Wunderground v.1.15,2013-03-19 03:20:00,
2013-03-18 20:25:00,53.3,49.5,30.02,WSW,243,0.0,1.0,87,0.00,,,0.00,Wunderground v.1.15,2013-03-19 03:25:00,
2013-03-18 20:30:00,53.5,49.7,30.02,NE,49,1.0,3.0,87,0.00,,,0.00,Wunderground v.1.15,2013-03-19 03:30:00,
2013-03-18 20:36:00,53.6,49.8,30.02,NE,53,2.0,4.0,87,0.00,,,0.00,Wunderground v.1.15,2013-03-19 03:36:00,
2013-03-18 20:42:00,53.9,50.1,30.03,ENE,72,2.0,4.0,87,0.00,,,0.00,Wunderground v.1.15,2013-03-19 03:42:00,
2013-03-18 20:47:00,54.0,50.2,30.03,ENE,57,3.0,7.0,87,0.00,,,0.00,Wunderground v.1.15,2013-03-19 03:47:00,
2013-03-18 20:52:00,53.9,50.1,30.03,NE,49,3.0,7.0,87,0.00,,,0.00,Wunderground v.1.15,2013-03-19 03:52:00,
2013-03-18 20:57:00,53.9,50.1,30.03,ENE,67,4.0,5.0,87,0.00,,,0.00,Wunderground v.1.15,2013-03-19 03:57:00,
2013-03-18 21:00:00,53.9,50.1,30.03,ENE,61,3.0,5.0,87,0.00,,,0.00,Wunderground v.1.15,2013-03-19 04:00:00,
2013-03-18 21:01:00,53.8,50.0,30.04,ENE,61,3.0,5.0,87,0.00,,,0.00,Wunderground v.1.15,2013-03-19 04:01:00,
2013-03-18 21:03:00,53.8,50.0,30.04,ENE,61,2.0,5.0,87,0.00,,,0.00,Wunderground v.1.15,2013-03-19 04:03:00,
2013-03-18 21:08:00,53.5,50.0,30.03,East,91,0.0,2.0,88,0.00,,,0.00,Wunderground v.1.15,2013-03-19 04:08:00,
2013-03-18 21:14:00,53.2,49.7,30.04,East,94,0.0,0.0,88,0.00,,,0.00,Wunderground v.1.15,2013-03-19 04:14:00,
2013-03-18 21:20:00,53.2,49.7,30.05,West,276,0.0,1.0,88,0.00,,,0.00,Wunderground v.1.15,2013-03-19 04:20:00,
2013-03-18 21:25:00,52.7,49.5,30.05,WNW,295,1.0,2.0,89,0.00,,,0.00,Wunderground v.1.15,2013-03-19 04:25:00,
2013-03-18 21:30:00,52.4,49.3,30.05,NW,321,1.0,2.0,89,0.00,,,0.00,Wunderground v.1.15,2013-03-19 04:30:00,
2013-03-18 21:35:00,52.1,49.3,30.05,NNW,328,1.0,1.0,90,0.00,,,0.00,Wunderground v.1.15,2013-03-19 04:35:00,
2013-03-18 21:41:00,51.8,49.0,30.05,North,353,1.0,2.0,90,0.00,,,0.00,Wunderground v.1.15,2013-03-19 04:41:00,
2013-03-18 21:47:00,52.0,49.5,30.05,NNE,32,1.0,3.0,91,0.00,,,0.00,Wunderground v.1.15,2013-03-19 04:47:00,
2013-03-18 21:53:00,52.0,49.2,30.04,NE,53,2.0,4.0,90,0.00,,,0.00,Wunderground v.1.15,2013-03-19 04:53:00,
2013-03-18 22:00:00,52.3,49.8,30.04,NNE,29,2.0,3.0,91,0.00,,,0.00,Wunderground v.1.15,2013-03-19 05:00:00,
2013-03-18 22:05:00,52.5,49.7,30.04,NE,43,2.0,2.0,90,0.00,,,0.00,Wunderground v.1.15,2013-03-19 05:05:00,
2013-03-18 22:10:00,52.4,49.6,30.04,NE,43,1.0,2.0,90,0.00,,,0.00,Wunderground v.1.15,2013-03-19 05:10:00,
2013-03-18 22:16:00,52.0,49.2,30.05,NE,43,0.0,0.0,90,0.00,,,0.00,Wunderground v.1.15,2013-03-19 05:16:00,
2013-03-18 22:21:00,51.7,49.2,30.05,NE,42,0.0,0.0,91,0.00,,,0.00,Wunderground v.1.15,2013-03-19 05:21:00,
2013-03-18 22:27:00,51.3,48.8,30.05,North,8,0.0,0.0,91,0.00,,,0.00,Wunderground v.1.15,2013-03-19 05:27:00,
2013-03-18 22:33:00,51.0,48.5,30.05,NNW,342,0.0,1.0,91,0.00,,,0.00,Wunderground v.1.15,2013-03-19 05:33:00,
2013-03-18 22:40:00,51.3,49.1,30.04,NNW,334,1.0,2.0,92,0.00,,,0.00,Wunderground v.1.15,2013-03-19 05:40:00,
2013-03-18 22:45:00,51.1,48.6,30.04,West,265,1.0,1.0,91,0.00,,,0.00,Wunderground v.1.15,2013-03-19 05:45:00,
2013-03-18 22:50:00,50.8,48.0,30.05,WNW,302,1.0,2.0,90,0.00,,,0.00,Wunderground v.1.15,2013-03-19 05:50:00,
2013-03-18 22:56:00,50.6,48.4,30.04,SW,226,1.0,1.0,92,0.00,,,0.00,Wunderground v.1.15,2013-03-19 05:56:00,
2013-03-18 23:02:00,50.5,48.6,30.04,WNW,288,1.0,1.0,93,0.00,,,0.00,Wunderground v.1.15,2013-03-19 06:02:00,
2013-03-18 23:08:00,50.4,48.5,30.04,WSW,239,1.0,1.0,93,0.00,,,0.00,Wunderground v.1.15,2013-03-19 06:08:00,
2013-03-18 23:14:00,50.3,48.4,30.04,NW,319,1.0,1.0,93,0.00,,,0.00,Wunderground v.1.15,2013-03-19 06:14:00,
2013-03-18 23:20:00,50.1,48.4,30.04,NW,319,1.0,1.0,94,0.00,,,0.00,Wunderground v.1.15,2013-03-19 06:20:00,
2013-03-18 23:25:00,49.9,48.0,30.04,NW,319,0.0,0.0,93,0.00,,,0.00,Wunderground v.1.15,2013-03-19 06:25:00,
2013-03-18 23:31:00,49.7,48.0,30.04,NW,319,0.0,0.0,94,0.00,,,0.00,Wunderground v.1.15,2013-03-19 06:31:00,
2013-03-18 23:37:00,49.6,47.9,30.04,NW,319,0.0,0.0,94,0.00,,,0.00,Wunderground v.1.15,2013-03-19 06:37:00,
2013-03-18 23:43:00,49.8,48.4,30.05,WSW,252,0.0,1.0,95,0.00,,,0.00,Wunderground v.1.15,2013-03-19 06:43:00,
2013-03-18 23:48:00,49.5,47.8,30.04,WSW,252,0.0,1.0,94,0.00,,,0.00,Wunderground v.1.15,2013-03-19 06:48:00,
2013-03-18 23:54:00,49.6,47.9,30.05,WNW,282,1.0,1.0,94,0.00,,,0.00,Wunderground v.1.15,2013-03-19 06:54:00,